createdAt,value
2019-02-20T00:00:12.972Z,13.23
2019-02-20T00:02:41.460Z,13.80
2019-02-20T00:05:09.892Z,13.70
2019-02-20T00:07:38.357Z,14.83
2019-02-20T00:10:07.327Z,14.30
2019-02-20T00:12:36.028Z,14.20
2019-02-20T00:15:05.801Z,13.60
2019-02-20T00:17:34.234Z,13.33
2019-02-20T00:20:02.723Z,14.67
2019-02-20T00:22:39.798Z,13.37
2019-02-20T00:25:01.355Z,13.90
2019-02-20T00:27:29.802Z,13.00
2019-02-20T00:29:58.195Z,14.30
2019-02-20T00:32:26.619Z,13.43
2019-02-20T00:34:55.297Z,13.50
2019-02-20T00:37:23.713Z,12.33
2019-02-20T00:39:52.188Z,12.33
2019-02-20T00:42:20.714Z,12.27
2019-02-20T00:44:56.499Z,13.53
2019-02-20T00:47:38.352Z,12.53
2019-02-20T00:50:06.889Z,13.20
2019-02-20T00:52:36.886Z,12.80
2019-02-20T00:55:07.011Z,13.63
2019-02-20T00:57:35.460Z,13.57
2019-02-20T01:00:06.060Z,12.50
2019-02-20T01:02:34.725Z,13.10
2019-02-20T01:05:03.162Z,14.43
2019-02-20T01:07:31.903Z,12.57
2019-02-20T01:10:00.593Z,13.53
2019-02-20T01:12:28.979Z,13.10
2019-02-20T01:14:57.429Z,13.30
2019-02-20T01:17:26.171Z,14.00
2019-02-20T01:19:54.611Z,13.87
2019-02-20T01:22:23.100Z,13.27
2019-02-20T01:24:51.553Z,13.73
2019-02-20T01:27:19.996Z,14.07
2019-02-20T01:29:48.453Z,13.20
2019-02-20T01:32:16.917Z,12.80
2019-02-20T01:34:45.331Z,12.60
2019-02-20T01:37:13.756Z,12.67
2019-02-20T01:39:42.170Z,12.40
2019-02-20T01:42:10.613Z,13.63
2019-02-20T01:44:39.168Z,13.03
2019-02-20T01:47:07.689Z,12.03
2019-02-20T01:49:36.443Z,12.03
2019-02-20T01:52:04.915Z,12.80
2019-02-20T01:54:33.593Z,11.90
2019-02-20T01:57:01.918Z,12.50
2019-02-20T01:59:30.623Z,12.80
2019-02-20T02:01:59.171Z,12.23
2019-02-20T02:04:27.542Z,11.70
2019-02-20T02:06:56.001Z,11.83
2019-02-20T02:09:24.447Z,11.77
2019-02-20T02:11:52.994Z,11.50
2019-02-20T02:14:21.428Z,11.07
2019-02-20T02:16:49.908Z,11.23
2019-02-20T02:19:18.283Z,11.63
2019-02-20T02:21:46.687Z,11.53
2019-02-20T02:24:15.135Z,10.47
2019-02-20T02:26:43.512Z,10.90
2019-02-20T02:29:11.994Z,11.50
2019-02-20T02:31:40.434Z,11.57
2019-02-20T02:34:08.890Z,11.00
2019-02-20T02:36:37.298Z,10.87
2019-02-20T02:39:06.280Z,11.07
2019-02-20T02:41:34.725Z,11.27
2019-02-20T02:44:03.224Z,11.13
2019-02-20T02:46:31.720Z,10.80
2019-02-20T02:49:00.107Z,10.70
2019-02-20T02:51:28.520Z,10.90
2019-02-20T02:53:56.884Z,11.20
2019-02-20T02:56:25.628Z,10.40
2019-02-20T02:58:54.198Z,11.03
2019-02-20T03:01:22.843Z,10.37
2019-02-20T03:03:51.233Z,10.40
2019-02-20T03:06:19.693Z,10.80
2019-02-20T03:08:48.230Z,10.67
2019-02-20T03:11:16.670Z,10.97
2019-02-20T03:13:46.918Z,10.37
2019-02-20T03:16:15.338Z,11.10
2019-02-20T03:18:43.831Z,10.30
2019-02-20T03:21:12.196Z,10.67
2019-02-20T03:23:40.760Z,10.23
2019-02-20T03:26:09.142Z,11.27
2019-02-20T03:28:37.549Z,10.67
2019-02-20T03:31:05.948Z,11.03
2019-02-20T03:33:34.742Z,11.10
2019-02-20T03:36:03.177Z,11.20
2019-02-20T03:38:31.904Z,11.70
2019-02-20T03:41:00.334Z,11.00
2019-02-20T03:43:28.809Z,11.40
2019-02-20T03:45:57.224Z,10.90
2019-02-20T03:48:25.890Z,11.60
2019-02-20T03:50:54.340Z,12.40
2019-02-20T03:53:22.551Z,10.97
2019-02-20T03:55:51.200Z,11.10
2019-02-20T03:58:19.919Z,11.23
2019-02-20T04:00:48.399Z,11.77
2019-02-20T04:03:16.803Z,11.33
2019-02-20T04:05:45.471Z,11.27
2019-02-20T04:08:13.860Z,11.90
2019-02-20T04:10:43.906Z,12.43
2019-02-20T04:13:12.404Z,12.10
2019-02-20T04:15:41.007Z,11.80
2019-02-20T04:18:10.869Z,12.27
2019-02-20T04:20:39.412Z,12.23
2019-02-20T04:23:08.070Z,13.13
2019-02-20T04:25:36.676Z,13.60
2019-02-20T04:28:05.439Z,13.07
2019-02-20T04:30:34.144Z,13.60
2019-02-20T04:33:02.630Z,13.30
2019-02-20T04:35:31.075Z,13.60
2019-02-20T04:37:59.526Z,14.37
2019-02-20T04:40:27.960Z,14.40
2019-02-20T04:42:58.478Z,14.47
2019-02-20T04:45:26.590Z,14.53
2019-02-20T04:47:55.031Z,13.77
2019-02-20T04:50:23.467Z,14.07
2019-02-20T04:52:52.194Z,14.17
2019-02-20T04:55:20.595Z,14.00
2019-02-20T04:57:52.155Z,14.00
2019-02-20T05:00:20.522Z,13.70
2019-02-20T05:02:49.214Z,14.20
2019-02-20T05:05:17.726Z,13.93
2019-02-20T05:07:46.192Z,14.83
2019-02-20T05:10:14.950Z,14.53
2019-02-20T05:12:43.367Z,14.80
2019-02-20T05:15:11.912Z,14.90
2019-02-20T05:17:40.431Z,13.70
2019-02-20T05:20:09.697Z,14.43
2019-02-20T05:22:38.108Z,13.73
2019-02-20T05:25:06.519Z,13.80
2019-02-20T05:27:34.929Z,14.10
2019-02-20T05:30:03.680Z,13.83
2019-02-20T05:32:32.401Z,14.00
2019-02-20T05:35:01.056Z,14.10
2019-02-20T05:37:29.689Z,14.73
2019-02-20T05:39:58.122Z,14.40
2019-02-20T05:42:26.880Z,14.20
2019-02-20T05:44:55.415Z,14.80
2019-02-20T05:47:23.755Z,13.80
2019-02-20T05:49:52.231Z,13.93
2019-02-20T05:52:20.589Z,13.90
2019-02-20T05:54:49.278Z,14.20
2019-02-20T05:57:17.637Z,14.43
2019-02-20T05:59:46.101Z,15.97
2019-02-20T06:02:14.631Z,14.00
2019-02-20T06:04:43.167Z,14.23
2019-02-20T06:07:11.905Z,14.23
2019-02-20T06:09:40.782Z,13.70
2019-02-20T06:12:09.467Z,13.90
2019-02-20T06:14:37.958Z,14.00
2019-02-20T06:17:06.413Z,14.90
2019-02-20T06:19:34.787Z,14.53
2019-02-20T06:22:03.307Z,14.00
2019-02-20T06:24:31.811Z,14.50
2019-02-20T06:27:00.224Z,14.40
2019-02-20T06:29:28.648Z,13.50
2019-02-20T06:31:57.125Z,14.20
2019-02-20T06:34:25.794Z,14.47
2019-02-20T06:36:54.168Z,13.30
2019-02-20T06:39:22.610Z,13.50
2019-02-20T06:41:51.017Z,14.07
2019-02-20T06:44:19.373Z,14.30
2019-02-20T06:46:47.755Z,13.70
2019-02-20T06:49:16.298Z,12.17
2019-02-20T06:51:44.654Z,12.83
2019-02-20T06:54:13.087Z,14.60
2019-02-20T06:56:41.980Z,13.67
2019-02-20T06:59:10.442Z,13.30
2019-02-20T07:01:38.961Z,13.40
2019-02-20T07:04:07.348Z,13.43
2019-02-20T07:06:47.953Z,13.13
2019-02-20T07:09:38.619Z,13.27
2019-02-20T07:12:18.759Z,14.17
2019-02-20T07:14:50.348Z,13.17
2019-02-20T07:17:44.163Z,13.63
2019-02-20T07:20:33.415Z,12.43
2019-02-20T07:23:23.940Z,14.13
2019-02-20T07:25:58.181Z,13.07
2019-02-20T07:28:44.756Z,13.30
2019-02-20T07:31:13.237Z,13.10
2019-02-20T07:33:41.609Z,13.30
2019-02-20T07:36:10.054Z,12.90
2019-02-20T07:38:38.512Z,13.90
2019-02-20T07:41:07.298Z,13.47
2019-02-20T07:43:35.967Z,14.00
2019-02-20T07:46:04.391Z,13.67
2019-02-20T07:48:32.796Z,12.87
2019-02-20T07:51:01.372Z,12.77
2019-02-20T07:53:29.763Z,13.77
2019-02-20T07:55:58.501Z,13.10
2019-02-20T07:58:26.884Z,13.13
2019-02-20T08:00:55.250Z,12.80
2019-02-20T08:03:23.735Z,13.67
2019-02-20T08:05:52.209Z,13.13
2019-02-20T08:08:20.906Z,14.10
2019-02-20T08:10:49.414Z,13.23
2019-02-20T08:13:18.145Z,13.10
2019-02-20T08:15:46.579Z,12.27
2019-02-20T08:18:14.998Z,12.80
2019-02-20T08:20:43.453Z,13.27
2019-02-20T08:23:11.861Z,13.03
2019-02-20T08:25:40.249Z,13.70
2019-02-20T08:28:08.713Z,12.90
2019-02-20T08:30:37.117Z,13.50
2019-02-20T08:33:05.736Z,13.00
2019-02-20T08:35:34.262Z,12.90
2019-02-20T08:38:02.599Z,13.50
2019-02-20T08:40:31.234Z,13.10
2019-02-20T08:42:59.873Z,13.23
2019-02-20T08:45:28.610Z,13.87
2019-02-20T08:47:57.001Z,12.23
2019-02-20T08:50:25.476Z,12.40
2019-02-20T08:52:54.001Z,13.13
2019-02-20T08:55:31.566Z,13.67
2019-02-20T08:57:52.994Z,13.60
2019-02-20T09:00:21.470Z,13.80
2019-02-20T09:02:50.275Z,13.17
2019-02-20T09:05:18.716Z,14.07
2019-02-20T09:07:47.191Z,12.83
2019-02-20T09:10:17.378Z,12.93
2019-02-20T09:12:46.585Z,14.00
2019-02-20T09:15:15.047Z,13.63
2019-02-20T09:17:43.462Z,13.10
2019-02-20T09:20:12.624Z,13.00
2019-02-20T09:22:41.032Z,14.53
2019-02-20T09:25:19.180Z,14.33
2019-02-20T09:27:41.167Z,13.77
2019-02-20T09:30:12.591Z,13.90
2019-02-20T09:32:41.021Z,14.07
2019-02-20T09:35:09.583Z,13.83
2019-02-20T09:37:38.005Z,13.30
2019-02-20T09:40:12.346Z,14.63
2019-02-20T09:42:41.066Z,13.33
2019-02-20T09:45:09.806Z,14.00
2019-02-20T09:47:38.263Z,14.80
2019-02-20T09:50:08.302Z,14.83
2019-02-20T09:52:37.026Z,15.30
2019-02-20T09:55:08.372Z,14.40
2019-02-20T09:57:37.184Z,13.93
2019-02-20T10:00:11.023Z,15.83
2019-02-20T10:02:39.401Z,14.20
2019-02-20T10:05:09.757Z,14.50
2019-02-20T10:07:38.310Z,14.20
2019-02-20T10:10:10.842Z,13.10
2019-02-20T10:12:39.326Z,14.67
2019-02-20T10:15:10.849Z,14.30
2019-02-20T10:17:39.444Z,14.27
2019-02-20T10:20:09.746Z,14.20
2019-02-20T10:22:38.219Z,15.00
2019-02-20T10:25:13.763Z,14.60
2019-02-20T10:27:43.230Z,13.73
2019-02-20T10:30:17.391Z,14.13
2019-02-20T10:32:45.993Z,15.30
2019-02-20T10:35:14.508Z,14.07
2019-02-20T10:37:42.879Z,13.60
2019-02-20T10:40:11.819Z,14.70
2019-02-20T10:42:40.353Z,14.97
2019-02-20T10:45:12.923Z,14.40
2019-02-20T10:47:41.376Z,14.47
2019-02-20T10:50:11.728Z,14.50
2019-02-20T10:52:40.088Z,14.90
2019-02-20T10:55:09.547Z,15.27
2019-02-20T10:57:38.229Z,15.70
2019-02-20T11:00:11.427Z,14.23
2019-02-20T11:02:39.953Z,15.37
2019-02-20T11:05:08.480Z,14.50
2019-02-20T11:07:37.044Z,13.80
2019-02-20T11:10:07.493Z,15.43
2019-02-20T11:12:35.982Z,14.17
2019-02-20T11:15:05.438Z,16.80
2019-02-20T11:17:33.884Z,13.90
2019-02-20T11:20:02.353Z,15.17
2019-02-20T11:22:32.112Z,14.00
2019-02-20T11:25:00.880Z,15.07
2019-02-20T11:27:29.635Z,15.63
2019-02-20T11:29:58.377Z,14.63
2019-02-20T11:32:26.919Z,14.63
2019-02-20T11:34:55.332Z,13.67
2019-02-20T11:37:24.011Z,14.80
2019-02-20T11:39:53.995Z,14.57
2019-02-20T11:42:23.009Z,15.40
2019-02-20T11:44:51.712Z,14.80
2019-02-20T11:47:20.281Z,13.63
2019-02-20T11:49:49.094Z,14.93
2019-02-20T11:52:18.518Z,14.40
2019-02-20T11:54:47.236Z,13.57
2019-02-20T11:57:15.700Z,14.53
2019-02-20T11:59:44.400Z,15.80
2019-02-20T12:02:12.862Z,15.37
2019-02-20T12:04:41.337Z,15.13
2019-02-20T12:07:09.729Z,15.60
2019-02-20T12:09:38.179Z,15.70
2019-02-20T12:12:06.610Z,15.13
2019-02-20T12:14:35.088Z,13.53
2019-02-20T12:17:03.975Z,13.47
2019-02-20T12:19:32.488Z,14.47
2019-02-20T12:22:00.950Z,15.00
2019-02-20T12:24:29.420Z,15.53
2019-02-20T12:26:57.874Z,15.30
2019-02-20T12:29:26.629Z,13.83
2019-02-20T12:31:55.071Z,14.37
2019-02-20T12:34:23.555Z,14.57
2019-02-20T12:36:51.936Z,14.87
2019-02-20T12:39:20.377Z,14.70
2019-02-20T12:41:48.800Z,18.60
2019-02-20T12:44:17.534Z,15.00
2019-02-20T12:46:47.737Z,13.90
2019-02-20T12:49:17.909Z,14.87
2019-02-20T12:51:46.324Z,14.23
2019-02-20T12:54:14.698Z,14.63
2019-02-20T12:56:44.172Z,14.30
2019-02-20T12:59:12.813Z,15.53
2019-02-20T13:01:41.361Z,15.17
2019-02-20T13:04:09.986Z,15.87
2019-02-20T13:06:38.723Z,15.13
2019-02-20T13:09:09.103Z,14.60
2019-02-20T13:11:37.671Z,15.63
2019-02-20T13:14:06.193Z,14.80
2019-02-20T13:16:34.669Z,13.70
2019-02-20T13:19:03.148Z,15.70
2019-02-20T13:21:31.611Z,15.37
2019-02-20T13:24:00.025Z,16.50
2019-02-20T13:26:28.463Z,15.37
2019-02-20T13:28:57.022Z,15.70
2019-02-20T13:31:25.495Z,14.60
2019-02-20T13:33:53.895Z,15.53
2019-02-20T13:36:22.413Z,14.93
2019-02-20T13:38:50.879Z,15.13
2019-02-20T13:41:19.676Z,14.97
2019-02-20T13:43:51.098Z,15.27
2019-02-20T13:46:19.660Z,15.60
2019-02-20T13:48:48.267Z,16.10
2019-02-20T13:51:17.743Z,16.60
2019-02-20T13:53:46.744Z,17.53
2019-02-20T13:56:15.271Z,14.53
2019-02-20T13:58:43.747Z,16.10
2019-02-20T14:01:12.543Z,15.17
2019-02-20T14:03:41.787Z,15.03
2019-02-20T14:06:10.556Z,16.07
2019-02-20T14:08:39.407Z,16.07
2019-02-20T14:11:08.646Z,15.07
2019-02-20T14:13:37.099Z,15.53
2019-02-20T14:16:05.557Z,15.73
2019-02-20T14:18:34.056Z,15.87
2019-02-20T14:21:02.701Z,15.67
2019-02-20T14:23:31.060Z,14.53
2019-02-20T14:26:00.784Z,14.17
2019-02-20T14:28:29.316Z,16.50
2019-02-20T14:30:57.789Z,14.83
2019-02-20T14:33:26.158Z,14.17
2019-02-20T14:35:54.633Z,16.47
2019-02-20T14:38:23.093Z,14.37
2019-02-20T14:40:51.556Z,15.17
2019-02-20T14:43:20.015Z,14.07
2019-02-20T14:45:48.411Z,15.83
2019-02-20T14:48:16.923Z,13.90
2019-02-20T14:50:45.317Z,14.00
2019-02-20T14:53:13.830Z,15.03
2019-02-20T14:55:42.230Z,13.70
2019-02-20T14:58:10.788Z,15.10
2019-02-20T15:00:39.594Z,14.37
2019-02-20T15:03:08.074Z,14.77
2019-02-20T15:05:36.511Z,15.10
2019-02-20T15:08:05.603Z,14.80
2019-02-20T15:10:34.055Z,16.00
2019-02-20T15:13:02.586Z,13.97
2019-02-20T15:15:31.046Z,16.57
2019-02-20T15:17:59.845Z,15.77
2019-02-20T15:20:28.370Z,15.13
2019-02-20T15:22:58.386Z,14.20
2019-02-20T15:25:26.983Z,14.57
2019-02-20T15:27:55.506Z,14.70
2019-02-20T15:30:23.974Z,15.00
2019-02-20T15:32:52.472Z,15.20
2019-02-20T15:35:21.023Z,14.23
2019-02-20T15:37:49.760Z,15.37
2019-02-20T15:40:18.316Z,15.33
2019-02-20T15:42:46.777Z,15.50
2019-02-20T15:45:15.307Z,14.80
2019-02-20T15:47:43.690Z,16.17
2019-02-20T15:50:15.643Z,14.73
2019-02-20T15:52:44.012Z,16.50
2019-02-20T15:55:12.486Z,15.43
2019-02-20T15:57:41.111Z,15.30
2019-02-20T16:00:17.087Z,15.93
2019-02-20T16:02:45.547Z,15.07
2019-02-20T16:05:14.283Z,15.13
2019-02-20T16:07:42.718Z,15.87
2019-02-20T16:10:11.774Z,15.30
2019-02-20T16:12:40.211Z,15.60
2019-02-20T16:15:10.336Z,15.20
2019-02-20T16:17:49.151Z,15.50
2019-02-20T16:20:15.261Z,15.87
2019-02-20T16:22:43.658Z,16.27
2019-02-20T16:25:16.090Z,15.73
2019-02-20T16:27:47.062Z,16.30
2019-02-20T16:30:15.278Z,16.10
2019-02-20T16:32:43.806Z,17.83
2019-02-20T16:35:12.700Z,16.67
2019-02-20T16:37:41.237Z,16.67
2019-02-20T16:40:12.513Z,16.80
2019-02-20T16:42:40.936Z,16.30
2019-02-20T16:45:12.489Z,16.40
2019-02-20T16:47:40.940Z,15.40
2019-02-20T16:50:09.644Z,15.77
2019-02-20T16:52:38.161Z,15.33
2019-02-20T16:55:06.721Z,14.87
2019-02-20T16:57:35.267Z,15.87
2019-02-20T17:00:03.981Z,16.03
2019-02-20T17:02:32.641Z,14.20
2019-02-20T17:05:01.057Z,15.70
2019-02-20T17:07:30.106Z,15.03
2019-02-20T17:09:58.816Z,14.90
2019-02-20T17:12:27.179Z,15.60
2019-02-20T17:14:55.704Z,15.20
2019-02-20T17:17:24.178Z,16.10
2019-02-20T17:19:52.532Z,15.50
2019-02-20T17:22:20.941Z,15.77
2019-02-20T17:24:49.450Z,14.80
2019-02-20T17:27:18.058Z,14.37
2019-02-20T17:29:46.553Z,14.93
2019-02-20T17:32:14.929Z,15.50
2019-02-20T17:34:43.381Z,15.40
2019-02-20T17:37:11.966Z,14.93
2019-02-20T17:39:41.094Z,15.77
2019-02-20T17:42:09.720Z,15.30
2019-02-20T17:44:38.247Z,15.97
2019-02-20T17:47:06.711Z,15.93
2019-02-20T17:49:35.266Z,16.40
2019-02-20T17:52:03.885Z,14.43
2019-02-20T17:54:32.304Z,14.43
2019-02-20T17:57:00.765Z,13.93
2019-02-20T17:59:29.143Z,14.20
2019-02-20T18:01:58.501Z,13.20
2019-02-20T18:04:27.241Z,14.43
2019-02-20T18:06:56.004Z,14.80
2019-02-20T18:09:24.707Z,15.10
2019-02-20T18:11:53.143Z,14.60
2019-02-20T18:14:21.608Z,13.00
2019-02-20T18:16:50.260Z,16.07
2019-02-20T18:19:18.568Z,15.10
2019-02-20T18:21:46.972Z,14.47
2019-02-20T18:24:15.724Z,14.47
2019-02-20T18:26:44.178Z,13.87
2019-02-20T18:29:12.558Z,14.67
2019-02-20T18:31:41.078Z,14.90
2019-02-20T18:34:09.557Z,14.00
2019-02-20T18:36:38.228Z,14.47
2019-02-20T18:39:07.051Z,14.87
2019-02-20T18:41:35.486Z,15.20
2019-02-20T18:44:04.234Z,14.93
2019-02-20T18:46:33.006Z,14.23
2019-02-20T18:49:01.568Z,14.50
2019-02-20T18:51:29.997Z,14.43
2019-02-20T18:53:58.511Z,13.90
2019-02-20T18:56:27.034Z,14.70
2019-02-20T18:58:55.440Z,14.83
2019-02-20T19:01:23.954Z,14.80
2019-02-20T19:03:52.542Z,13.70
2019-02-20T19:06:21.194Z,13.60
2019-02-20T19:08:51.613Z,13.80
2019-02-20T19:11:35.348Z,13.90
2019-02-20T19:14:23.061Z,14.00
2019-02-20T19:17:19.722Z,15.30
2019-02-20T19:20:15.072Z,14.00
2019-02-20T19:23:05.761Z,14.73
2019-02-20T19:25:37.337Z,13.73
2019-02-20T19:28:23.962Z,14.77
2019-02-20T19:31:21.029Z,14.57
2019-02-20T19:34:21.091Z,14.07
2019-02-20T19:37:14.931Z,13.97
2019-02-20T19:40:15.113Z,15.30
2019-02-20T19:43:01.638Z,13.63
2019-02-20T19:45:33.309Z,13.80
2019-02-20T19:48:31.840Z,13.90
2019-02-20T19:51:12.306Z,13.27
2019-02-20T19:53:43.927Z,14.10
2019-02-20T19:56:18.345Z,13.67
2019-02-20T19:59:21.491Z,13.93
2019-02-20T20:02:08.443Z,13.63
2019-02-20T20:04:51.634Z,13.60
2019-02-20T20:07:41.025Z,13.00
2019-02-20T20:10:27.679Z,13.07
2019-02-20T20:13:01.947Z,12.63
2019-02-20T20:15:36.217Z,13.40
2019-02-20T20:18:23.636Z,13.57
2019-02-20T20:21:25.121Z,14.10
2019-02-20T20:24:22.678Z,13.50
2019-02-20T20:27:20.723Z,13.53
2019-02-20T20:30:20.784Z,13.00
2019-02-20T20:33:11.530Z,14.27
2019-02-20T20:35:59.153Z,12.93
2019-02-20T20:38:36.344Z,13.20
2019-02-20T20:41:10.838Z,13.17
2019-02-20T20:43:45.032Z,12.10
2019-02-20T20:46:28.717Z,12.87
2019-02-20T20:49:02.800Z,12.63
2019-02-20T20:51:53.564Z,13.33
2019-02-20T20:54:39.898Z,12.53
2019-02-20T20:57:26.349Z,13.43
2019-02-20T21:00:00.798Z,12.90
2019-02-20T21:02:32.337Z,13.23
2019-02-20T21:05:20.176Z,12.70
2019-02-20T21:08:03.019Z,12.00
2019-02-20T21:11:09.015Z,11.67
2019-02-20T21:13:56.959Z,13.10
2019-02-20T21:16:43.362Z,12.33
2019-02-20T21:19:29.662Z,12.73
2019-02-20T21:22:22.339Z,11.87
2019-02-20T21:25:15.990Z,14.00
2019-02-20T21:27:53.236Z,12.37
2019-02-20T21:30:41.114Z,12.90
2019-02-20T21:33:33.307Z,12.60
2019-02-20T21:36:05.311Z,11.10
2019-02-20T21:38:48.743Z,11.93
2019-02-20T21:41:23.073Z,12.77
2019-02-20T21:44:09.330Z,11.80
2019-02-20T21:46:52.686Z,11.47
2019-02-20T21:49:29.929Z,11.60
2019-02-20T21:52:19.384Z,12.00
2019-02-20T21:55:02.581Z,11.50
2019-02-20T21:57:49.274Z,11.53
2019-02-20T22:00:27.838Z,13.07
2019-02-20T22:03:05.411Z,12.60
2019-02-20T22:05:59.742Z,12.30
2019-02-20T22:08:31.275Z,11.80
2019-02-20T22:11:28.270Z,11.93
2019-02-20T22:14:11.668Z,11.87
2019-02-20T22:16:48.762Z,12.13
2019-02-20T22:19:20.323Z,11.60
2019-02-20T22:22:11.026Z,11.90
2019-02-20T22:24:54.535Z,12.07
2019-02-20T22:27:48.532Z,12.00
2019-02-20T22:30:31.868Z,11.67
2019-02-20T22:33:03.567Z,12.37
2019-02-20T22:35:57.663Z,11.37
2019-02-20T22:38:29.259Z,11.40
2019-02-20T22:41:03.604Z,12.80
2019-02-20T22:43:43.815Z,12.13
2019-02-20T22:46:15.352Z,11.30
2019-02-20T22:48:58.855Z,12.10
2019-02-20T22:51:36.282Z,12.07
2019-02-20T22:54:11.014Z,12.80
2019-02-20T22:57:05.893Z,11.90
2019-02-20T23:00:08.515Z,14.00
2019-02-20T23:02:48.972Z,12.60
2019-02-20T23:05:36.656Z,12.60
2019-02-20T23:08:23.244Z,11.70
2019-02-20T23:11:15.660Z,12.90
2019-02-20T23:13:59.099Z,12.33
2019-02-20T23:16:27.640Z,12.03
2019-02-20T23:18:56.383Z,12.43
2019-02-20T23:21:24.843Z,11.97
2019-02-20T23:23:53.226Z,11.97
2019-02-20T23:26:21.701Z,11.73
2019-02-20T23:28:50.120Z,11.20
2019-02-20T23:31:18.508Z,11.97
2019-02-20T23:33:47.014Z,12.90
2019-02-20T23:36:15.492Z,11.43
2019-02-20T23:38:43.871Z,11.70
2019-02-20T23:41:12.265Z,12.40
2019-02-20T23:43:40.658Z,11.83
2019-02-20T23:46:09.111Z,12.00
2019-02-20T23:48:37.509Z,12.50
2019-02-20T23:51:05.946Z,12.33
2019-02-20T23:53:34.599Z,12.70
2019-02-20T23:56:02.928Z,12.53
2019-02-20T23:58:31.375Z,12.87
